EJA303 KASE-KVNY
Flight info
| Callsign | EJA303 |
|---|---|
| Flight time | 1h 43m |
| Altitude | 36000 |
| Route | KASE ZUKSO V8 HVE J60 BLD V21 DANBY V587 DAG JINAT FURRY RW16R KVNY |
| Aircraft | C700/M-VGD/A |
Departure
| Time | 2026-05-08 18:22 |
|---|---|
| Airport | Aspen-Pitkin County Airport (Sardy Field) (KASE) |
Arrival
| Time | 2026-05-08 20:05 |
|---|---|
| Airport | Van Nuys Airport (KVNY) |
| Time | Latitude | Longitude | Altitude | Speed | Heading |
|---|---|---|---|---|---|
| 2026-05-08 18:13 | 39.21822 | -106.86423 | 7792 ft | 0 kts | 72° |
| 2026-05-08 18:17 | 39.21821 | -106.86427 | 7792 ft | 2 kts | 71° |
| 2026-05-08 18:17 | 39.21817 | -106.86444 | 7783 ft | 2 kts | 71° |
| 2026-05-08 18:17 | 39.21815 | -106.86447 | 7783 ft | 1 kts | 95° |
| 2026-05-08 18:17 | 39.21814 | -106.86446 | 7783 ft | 0 kts | 108° |
| 2026-05-08 18:18 | 39.21808 | -106.86446 | 7773 ft | 0 kts | 195° |
| 2026-05-08 18:18 | 39.21807 | -106.86447 | 7776 ft | 0 kts | 211° |
| 2026-05-08 18:18 | 39.21802 | -106.86475 | 7785 ft | 3 kts | 255° |
| 2026-05-08 18:19 | 39.21797 | -106.86486 | 7790 ft | 9 kts | 235° |
| 2026-05-08 18:19 | 39.21726 | -106.86484 | 7799 ft | 11 kts | 162° |
| 2026-05-08 18:19 | 39.21652 | -106.86447 | 7806 ft | 12 kts | 158° |
| 2026-05-08 18:19 | 39.21570 | -106.86407 | 7812 ft | 14 kts | 160° |
| 2026-05-08 18:20 | 39.21466 | -106.86359 | 7818 ft | 17 kts | 160° |
| 2026-05-08 18:20 | 39.21353 | -106.86305 | 7828 ft | 16 kts | 159° |
| 2026-05-08 18:20 | 39.21250 | -106.86256 | 7830 ft | 16 kts | 165° |
| 2026-05-08 18:20 | 39.21175 | -106.86327 | 7829 ft | 16 kts | 274° |
| 2026-05-08 18:21 | 39.21289 | -106.86396 | 7826 ft | 27 kts | 338° |
| 2026-05-08 18:21 | 39.21677 | -106.86582 | 7803 ft | 94 kts | 340° |
| 2026-05-08 18:21 | 39.22478 | -106.86956 | 7752 ft | 151 kts | 340° |
| 2026-05-08 18:21 | 39.23504 | -106.87506 | 8279 ft | 165 kts | 339° |
| 2026-05-08 18:22 | 39.24715 | -106.88071 | 8653 ft | 204 kts | 342° |
| 2026-05-08 18:22 | 39.26173 | -106.88469 | 9167 ft | 227 kts | 353° |
| 2026-05-08 18:22 | 39.27826 | -106.88696 | 9165 ft | 244 kts | 349° |
| 2026-05-08 18:22 | 39.29422 | -106.89300 | 9152 ft | 235 kts | 332° |
| 2026-05-08 18:23 | 39.30585 | -106.90753 | 9145 ft | 234 kts | 296° |
| 2026-05-08 18:23 | 39.30980 | -106.92730 | 9325 ft | 229 kts | 278° |
| 2026-05-08 18:23 | 39.31307 | -106.94776 | 9971 ft | 227 kts | 287° |
| 2026-05-08 18:23 | 39.31773 | -106.96676 | 11238 ft | 225 kts | 289° |
| 2026-05-08 18:24 | 39.32387 | -106.98635 | 11825 ft | 252 kts | 294° |
| 2026-05-08 18:24 | 39.33201 | -107.00789 | 12231 ft | 281 kts | 296° |
| 2026-05-08 18:24 | 39.34132 | -107.03142 | 12821 ft | 305 kts | 296° |
| 2026-05-08 18:24 | 39.35079 | -107.05628 | 13965 ft | 310 kts | 296° |
| 2026-05-08 18:25 | 39.36023 | -107.08179 | 15009 ft | 317 kts | 296° |
| 2026-05-08 18:25 | 39.36986 | -107.10769 | 15990 ft | 323 kts | 296° |
| 2026-05-08 18:25 | 39.37769 | -107.13497 | 17191 ft | 326 kts | 286° |
| 2026-05-08 18:25 | 39.38141 | -107.16422 | 18250 ft | 334 kts | 277° |
| 2026-05-08 18:26 | 39.38090 | -107.19466 | 18936 ft | 350 kts | 268° |
| 2026-05-08 18:26 | 39.37563 | -107.22641 | 18935 ft | 363 kts | 259° |
| 2026-05-08 18:26 | 39.36928 | -107.25757 | 18932 ft | 354 kts | 259° |
| 2026-05-08 18:26 | 39.36332 | -107.28870 | 18934 ft | 364 kts | 260° |
| 2026-05-08 18:27 | 39.35720 | -107.32114 | 18949 ft | 386 kts | 259° |
| 2026-05-08 18:27 | 39.35271 | -107.34412 | 18946 ft | 392 kts | 259° |
| 2026-05-08 18:27 | 39.34372 | -107.38911 | 18944 ft | 390 kts | 259° |
| 2026-05-08 18:27 | 39.33693 | -107.42395 | 18936 ft | 408 kts | 259° |
| 2026-05-08 18:28 | 39.32998 | -107.45988 | 18951 ft | 416 kts | 258° |
| 2026-05-08 18:28 | 39.32282 | -107.49612 | 18953 ft | 413 kts | 258° |
| 2026-05-08 18:28 | 39.31570 | -107.53193 | 18951 ft | 410 kts | 258° |
| 2026-05-08 18:28 | 39.30867 | -107.56767 | 18951 ft | 410 kts | 259° |
| 2026-05-08 18:29 | 39.30174 | -107.60298 | 18949 ft | 411 kts | 258° |
| 2026-05-08 18:29 | 39.29447 | -107.63870 | 18964 ft | 412 kts | 257° |
| 2026-05-08 18:29 | 39.28650 | -107.67425 | 18965 ft | 412 kts | 257° |
| 2026-05-08 18:29 | 39.27871 | -107.70984 | 18967 ft | 412 kts | 257° |
| 2026-05-08 18:30 | 39.27099 | -107.74545 | 18953 ft | 412 kts | 257° |
| 2026-05-08 18:30 | 39.26321 | -107.78056 | 19699 ft | 395 kts | 256° |
| 2026-05-08 18:30 | 39.25576 | -107.81383 | 21088 ft | 385 kts | 257° |
| 2026-05-08 18:30 | 39.24855 | -107.84647 | 21818 ft | 367 kts | 257° |
| 2026-05-08 18:31 | 39.24177 | -107.87726 | 22558 ft | 351 kts | 257° |
| 2026-05-08 18:31 | 39.23508 | -107.90752 | 23328 ft | 352 kts | 257° |
| 2026-05-08 18:31 | 39.22830 | -107.93814 | 24039 ft | 357 kts | 257° |
| 2026-05-08 18:31 | 39.22139 | -107.96915 | 24723 ft | 362 kts | 257° |
| 2026-05-08 18:32 | 39.21437 | -108.00057 | 25434 ft | 366 kts | 258° |
| 2026-05-08 18:32 | 39.20739 | -108.03184 | 26131 ft | 368 kts | 258° |
| 2026-05-08 18:32 | 39.20030 | -108.06358 | 26865 ft | 369 kts | 258° |
| 2026-05-08 18:32 | 39.19316 | -108.09547 | 27633 ft | 369 kts | 258° |
| 2026-05-08 18:33 | 39.18604 | -108.12726 | 28420 ft | 369 kts | 258° |
| 2026-05-08 18:33 | 39.17891 | -108.15902 | 29229 ft | 368 kts | 259° |
| 2026-05-08 18:33 | 39.17179 | -108.19069 | 30045 ft | 367 kts | 259° |
| 2026-05-08 18:33 | 39.16468 | -108.22228 | 30769 ft | 365 kts | 259° |
| 2026-05-08 18:34 | 39.15762 | -108.25361 | 31502 ft | 363 kts | 259° |
| 2026-05-08 18:34 | 39.15061 | -108.28465 | 32254 ft | 359 kts | 259° |
| 2026-05-08 18:34 | 39.14374 | -108.31500 | 33016 ft | 354 kts | 260° |
| 2026-05-08 18:34 | 39.13691 | -108.34519 | 33802 ft | 348 kts | 260° |
| 2026-05-08 18:35 | 39.13018 | -108.37483 | 34534 ft | 340 kts | 260° |
| 2026-05-08 18:35 | 39.12364 | -108.40364 | 35240 ft | 331 kts | 260° |
| 2026-05-08 18:35 | 39.11727 | -108.43164 | 35934 ft | 321 kts | 261° |
| 2026-05-08 18:35 | 39.11096 | -108.45963 | 36043 ft | 331 kts | 261° |
| 2026-05-08 18:36 | 39.10446 | -108.48856 | 36073 ft | 342 kts | 260° |
| 2026-05-08 18:36 | 39.09762 | -108.51846 | 36073 ft | 354 kts | 260° |
| 2026-05-08 18:36 | 39.09050 | -108.54948 | 36074 ft | 366 kts | 260° |
| 2026-05-08 18:36 | 39.08322 | -108.58134 | 36073 ft | 377 kts | 259° |
| 2026-05-08 18:37 | 39.07570 | -108.61423 | 36077 ft | 389 kts | 259° |
| 2026-05-08 18:37 | 39.06793 | -108.64814 | 36067 ft | 400 kts | 259° |
| 2026-05-08 18:37 | 39.05182 | -108.71816 | 36026 ft | 421 kts | 259° |
| 2026-05-08 18:38 | 39.04341 | -108.75466 | 35908 ft | 430 kts | 259° |
| 2026-05-08 18:38 | 39.03480 | -108.79199 | 35893 ft | 440 kts | 258° |
| 2026-05-08 18:38 | 39.01697 | -108.86902 | 35911 ft | 458 kts | 258° |
| 2026-05-08 18:39 | 38.99844 | -108.94887 | 35912 ft | 471 kts | 258° |
| 2026-05-08 18:39 | 38.97965 | -109.02937 | 35908 ft | 467 kts | 258° |
| 2026-05-08 18:40 | 38.95649 | -109.10676 | 35903 ft | 466 kts | 252° |
| 2026-05-08 18:40 | 38.93128 | -109.18369 | 35895 ft | 469 kts | 252° |
| 2026-05-08 18:41 | 38.90557 | -109.26115 | 35899 ft | 473 kts | 251° |
| 2026-05-08 18:41 | 38.87982 | -109.33878 | 35900 ft | 471 kts | 252° |
| 2026-05-08 18:42 | 38.85435 | -109.41529 | 35890 ft | 456 kts | 252° |
| 2026-05-08 18:42 | 38.84200 | -109.45218 | 35883 ft | 444 kts | 252° |
| 2026-05-08 18:42 | 38.83013 | -109.48789 | 35893 ft | 438 kts | 252° |
| 2026-05-08 18:43 | 38.80602 | -109.56019 | 35897 ft | 446 kts | 251° |
| 2026-05-08 18:43 | 38.78120 | -109.63409 | 35905 ft | 453 kts | 251° |
| 2026-05-08 18:44 | 38.75636 | -109.70798 | 36046 ft | 450 kts | 251° |
| 2026-05-08 18:44 | 38.73165 | -109.78131 | 36046 ft | 446 kts | 251° |
| 2026-05-08 18:45 | 38.70704 | -109.85420 | 36037 ft | 447 kts | 251° |
| 2026-05-08 18:45 | 38.68235 | -109.92710 | 36007 ft | 451 kts | 251° |
| 2026-05-08 18:46 | 38.66983 | -109.96397 | 35894 ft | 452 kts | 251° |
| 2026-05-08 18:46 | 38.65729 | -110.00089 | 35895 ft | 452 kts | 251° |
| 2026-05-08 18:46 | 38.63223 | -110.07449 | 35895 ft | 450 kts | 251° |
| 2026-05-08 18:47 | 38.60726 | -110.14764 | 35882 ft | 447 kts | 251° |
| 2026-05-08 18:47 | 38.58234 | -110.22051 | 35886 ft | 447 kts | 251° |
| 2026-05-08 18:48 | 38.55747 | -110.29303 | 35887 ft | 450 kts | 251° |
| 2026-05-08 18:48 | 38.53210 | -110.36679 | 35892 ft | 452 kts | 251° |
| 2026-05-08 18:49 | 38.50693 | -110.43979 | 35894 ft | 451 kts | 251° |
| 2026-05-08 18:49 | 38.48163 | -110.51298 | 35887 ft | 448 kts | 251° |
| 2026-05-08 18:50 | 38.45651 | -110.58552 | 35880 ft | 446 kts | 251° |
| 2026-05-08 18:50 | 38.43133 | -110.65804 | 36055 ft | 448 kts | 250° |
| 2026-05-08 18:51 | 38.40133 | -110.72825 | 36059 ft | 456 kts | 239° |
| 2026-05-08 18:51 | 38.36507 | -110.79432 | 36066 ft | 458 kts | 240° |
| 2026-05-08 18:52 | 38.32861 | -110.86103 | 36019 ft | 459 kts | 239° |
| 2026-05-08 18:52 | 38.29207 | -110.92747 | 35980 ft | 457 kts | 239° |
| 2026-05-08 18:53 | 38.25564 | -110.99377 | 35939 ft | 456 kts | 239° |
| 2026-05-08 18:53 | 38.21929 | -111.05967 | 35908 ft | 454 kts | 239° |
| 2026-05-08 18:54 | 38.18298 | -111.12544 | 35904 ft | 454 kts | 239° |
| 2026-05-08 18:54 | 38.14656 | -111.19125 | 35922 ft | 456 kts | 239° |
| 2026-05-08 18:55 | 38.09190 | -111.28978 | 35943 ft | 457 kts | 239° |
| 2026-05-08 18:56 | 38.05525 | -111.35565 | 35943 ft | 457 kts | 239° |
| 2026-05-08 18:56 | 38.01859 | -111.42147 | 35946 ft | 455 kts | 239° |
| 2026-05-08 18:57 | 37.98185 | -111.48721 | 35950 ft | 456 kts | 239° |
| 2026-05-08 18:57 | 37.94514 | -111.55285 | 35962 ft | 457 kts | 239° |
| 2026-05-08 18:58 | 37.90834 | -111.61845 | 35969 ft | 457 kts | 239° |
| 2026-05-08 18:58 | 37.87137 | -111.68431 | 35958 ft | 459 kts | 239° |
| 2026-05-08 18:59 | 37.83451 | -111.74976 | 35976 ft | 458 kts | 239° |
| 2026-05-08 18:59 | 37.79755 | -111.81530 | 36044 ft | 456 kts | 239° |
| 2026-05-08 19:00 | 37.76702 | -111.86932 | 36091 ft | 453 kts | 239° |
| 2026-05-08 19:00 | 37.72425 | -111.94486 | 36173 ft | 453 kts | 239° |
| 2026-05-08 19:01 | 37.68745 | -112.00973 | 36217 ft | 455 kts | 238° |
| 2026-05-08 19:01 | 37.65071 | -112.07438 | 36242 ft | 456 kts | 238° |
| 2026-05-08 19:02 | 37.61369 | -112.13936 | 36231 ft | 456 kts | 238° |
| 2026-05-08 19:02 | 37.57653 | -112.20450 | 36188 ft | 457 kts | 238° |
| 2026-05-08 19:03 | 37.54567 | -112.25843 | 36140 ft | 457 kts | 238° |
| 2026-05-08 19:03 | 37.50844 | -112.32345 | 36070 ft | 456 kts | 238° |
| 2026-05-08 19:04 | 37.47135 | -112.38811 | 35994 ft | 455 kts | 238° |
| 2026-05-08 19:04 | 37.43426 | -112.45260 | 35929 ft | 454 kts | 238° |
| 2026-05-08 19:05 | 37.39727 | -112.51682 | 35936 ft | 452 kts | 238° |
| 2026-05-08 19:05 | 37.36049 | -112.58055 | 35934 ft | 453 kts | 238° |
| 2026-05-08 19:06 | 37.32337 | -112.64474 | 35940 ft | 455 kts | 237° |
| 2026-05-08 19:06 | 37.28595 | -112.70930 | 35943 ft | 457 kts | 237° |
| 2026-05-08 19:07 | 37.24847 | -112.77388 | 35963 ft | 457 kts | 237° |
| 2026-05-08 19:07 | 37.21112 | -112.83809 | 35986 ft | 457 kts | 237° |
| 2026-05-08 19:08 | 37.17355 | -112.90255 | 36026 ft | 457 kts | 237° |
| 2026-05-08 19:08 | 37.13608 | -112.96674 | 36063 ft | 456 kts | 237° |
| 2026-05-08 19:09 | 37.09849 | -113.03095 | 36104 ft | 455 kts | 237° |
| 2026-05-08 19:09 | 37.06105 | -113.09489 | 36111 ft | 456 kts | 237° |
| 2026-05-08 19:10 | 37.02346 | -113.15887 | 36098 ft | 456 kts | 236° |
| 2026-05-08 19:10 | 36.98582 | -113.22285 | 36066 ft | 456 kts | 236° |
| 2026-05-08 19:11 | 36.94835 | -113.28642 | 36029 ft | 457 kts | 236° |
| 2026-05-08 19:11 | 36.91057 | -113.35038 | 35987 ft | 457 kts | 236° |
| 2026-05-08 19:12 | 36.87280 | -113.41422 | 35940 ft | 457 kts | 236° |
| 2026-05-08 19:12 | 36.83502 | -113.47796 | 35955 ft | 454 kts | 236° |
| 2026-05-08 19:13 | 36.79774 | -113.54070 | 35944 ft | 451 kts | 236° |
| 2026-05-08 19:13 | 36.76032 | -113.60361 | 35936 ft | 452 kts | 236° |
| 2026-05-08 19:14 | 36.72263 | -113.66682 | 35925 ft | 455 kts | 236° |
| 2026-05-08 19:14 | 36.68470 | -113.73033 | 35923 ft | 457 kts | 236° |
| 2026-05-08 19:15 | 36.64681 | -113.79364 | 35903 ft | 454 kts | 235° |
| 2026-05-08 19:15 | 36.60938 | -113.85608 | 35905 ft | 452 kts | 236° |
| 2026-05-08 19:16 | 36.57180 | -113.91863 | 35893 ft | 451 kts | 235° |
| 2026-05-08 19:16 | 36.53402 | -113.98143 | 35895 ft | 453 kts | 235° |
| 2026-05-08 19:17 | 36.49612 | -114.04430 | 35874 ft | 455 kts | 235° |
| 2026-05-08 19:17 | 36.45828 | -114.10696 | 35873 ft | 455 kts | 235° |
| 2026-05-08 19:18 | 36.42006 | -114.17011 | 35860 ft | 454 kts | 235° |
| 2026-05-08 19:18 | 36.38240 | -114.23225 | 35855 ft | 453 kts | 235° |
| 2026-05-08 19:19 | 36.34456 | -114.29457 | 35845 ft | 452 kts | 235° |
| 2026-05-08 19:19 | 36.30667 | -114.35683 | 35844 ft | 452 kts | 235° |
| 2026-05-08 19:20 | 36.26874 | -114.41907 | 35839 ft | 453 kts | 234° |
| 2026-05-08 19:20 | 36.23066 | -114.48141 | 35840 ft | 454 kts | 234° |
| 2026-05-08 19:21 | 36.19252 | -114.54378 | 35838 ft | 455 kts | 234° |
| 2026-05-08 19:21 | 36.15449 | -114.60582 | 35867 ft | 455 kts | 234° |
| 2026-05-08 19:22 | 36.11625 | -114.66812 | 35885 ft | 454 kts | 234° |
| 2026-05-08 19:22 | 36.07809 | -114.73014 | 35911 ft | 452 kts | 234° |
| 2026-05-08 19:23 | 36.03999 | -114.79199 | 35941 ft | 451 kts | 234° |
| 2026-05-08 19:23 | 36.00195 | -114.85359 | 35942 ft | 451 kts | 234° |
| 2026-05-08 19:24 | 35.96028 | -114.91193 | 35956 ft | 454 kts | 230° |
| 2026-05-08 19:24 | 35.91789 | -114.96989 | 35950 ft | 456 kts | 230° |
| 2026-05-08 19:25 | 35.87545 | -115.02758 | 36005 ft | 457 kts | 229° |
| 2026-05-08 19:25 | 35.83285 | -115.08546 | 35948 ft | 454 kts | 230° |
| 2026-05-08 19:26 | 35.79045 | -115.14298 | 35954 ft | 452 kts | 230° |
| 2026-05-08 19:26 | 35.74814 | -115.20024 | 35957 ft | 452 kts | 230° |
| 2026-05-08 19:27 | 35.70571 | -115.25760 | 35939 ft | 450 kts | 229° |
| 2026-05-08 19:27 | 35.68469 | -115.28596 | 34928 ft | 450 kts | 229° |
| 2026-05-08 19:27 | 35.66340 | -115.31469 | 33676 ft | 457 kts | 229° |
| 2026-05-08 19:27 | 35.64191 | -115.34365 | 32632 ft | 456 kts | 229° |
| 2026-05-08 19:28 | 35.62095 | -115.37184 | 32018 ft | 448 kts | 229° |
| 2026-05-08 19:28 | 35.60002 | -115.39999 | 31399 ft | 446 kts | 229° |
| 2026-05-08 19:28 | 35.57900 | -115.42828 | 30793 ft | 452 kts | 229° |
| 2026-05-08 19:28 | 35.55746 | -115.45725 | 30205 ft | 464 kts | 229° |
| 2026-05-08 19:29 | 35.53542 | -115.48681 | 29564 ft | 472 kts | 229° |
| 2026-05-08 19:29 | 35.51321 | -115.51653 | 28895 ft | 469 kts | 229° |
| 2026-05-08 19:29 | 35.49129 | -115.54587 | 28233 ft | 463 kts | 229° |
| 2026-05-08 19:29 | 35.46966 | -115.57484 | 27583 ft | 456 kts | 229° |
| 2026-05-08 19:30 | 35.44839 | -115.60330 | 26948 ft | 449 kts | 229° |
| 2026-05-08 19:30 | 35.42738 | -115.63135 | 26328 ft | 443 kts | 229° |
| 2026-05-08 19:30 | 35.40690 | -115.65867 | 25724 ft | 438 kts | 229° |
| 2026-05-08 19:30 | 35.38637 | -115.68606 | 25131 ft | 434 kts | 229° |
| 2026-05-08 19:31 | 35.36596 | -115.71330 | 24547 ft | 432 kts | 229° |
| 2026-05-08 19:31 | 35.34566 | -115.74035 | 23980 ft | 430 kts | 229° |
| 2026-05-08 19:31 | 35.32540 | -115.76729 | 23392 ft | 429 kts | 230° |
| 2026-05-08 19:31 | 35.30751 | -115.79623 | 22955 ft | 417 kts | 240° |
| 2026-05-08 19:32 | 35.29382 | -115.82633 | 22953 ft | 394 kts | 243° |
| 2026-05-08 19:32 | 35.28116 | -115.85527 | 22954 ft | 377 kts | 244° |
| 2026-05-08 19:32 | 35.26893 | -115.88323 | 22956 ft | 371 kts | 244° |
| 2026-05-08 19:32 | 35.25664 | -115.91149 | 22945 ft | 381 kts | 244° |
| 2026-05-08 19:33 | 35.24401 | -115.94047 | 22959 ft | 390 kts | 244° |
| 2026-05-08 19:33 | 35.23116 | -115.96985 | 22960 ft | 391 kts | 243° |
| 2026-05-08 19:33 | 35.21836 | -115.99896 | 22955 ft | 386 kts | 243° |
| 2026-05-08 19:33 | 35.20569 | -116.02783 | 22934 ft | 383 kts | 243° |
| 2026-05-08 19:34 | 35.19317 | -116.05643 | 22934 ft | 382 kts | 243° |
| 2026-05-08 19:34 | 35.18055 | -116.08521 | 22934 ft | 384 kts | 243° |
| 2026-05-08 19:34 | 35.16806 | -116.11362 | 22936 ft | 385 kts | 243° |
| 2026-05-08 19:34 | 35.15535 | -116.14250 | 22926 ft | 387 kts | 243° |
| 2026-05-08 19:35 | 35.14261 | -116.17145 | 22928 ft | 387 kts | 243° |
| 2026-05-08 19:35 | 35.12987 | -116.20038 | 22928 ft | 386 kts | 243° |
| 2026-05-08 19:35 | 35.11713 | -116.22928 | 22925 ft | 386 kts | 243° |
| 2026-05-08 19:35 | 35.10436 | -116.25822 | 22925 ft | 386 kts | 243° |
| 2026-05-08 19:36 | 35.09164 | -116.28698 | 22918 ft | 383 kts | 243° |
| 2026-05-08 19:36 | 35.07904 | -116.31551 | 22916 ft | 380 kts | 243° |
| 2026-05-08 19:36 | 35.06650 | -116.34388 | 22914 ft | 379 kts | 243° |
| 2026-05-08 19:36 | 35.05381 | -116.37255 | 22849 ft | 393 kts | 243° |
| 2026-05-08 19:37 | 35.04038 | -116.40291 | 22652 ft | 421 kts | 243° |
| 2026-05-08 19:37 | 35.02617 | -116.43495 | 22084 ft | 432 kts | 242° |
| 2026-05-08 19:37 | 35.01188 | -116.46703 | 21516 ft | 425 kts | 243° |
| 2026-05-08 19:37 | 34.99801 | -116.49821 | 20953 ft | 411 kts | 243° |
| 2026-05-08 19:38 | 34.98463 | -116.52831 | 20398 ft | 397 kts | 243° |
| 2026-05-08 19:38 | 34.97167 | -116.55747 | 19850 ft | 385 kts | 243° |
| 2026-05-08 19:38 | 34.95914 | -116.58549 | 19316 ft | 375 kts | 242° |
| 2026-05-08 19:38 | 34.94373 | -116.61077 | 18776 ft | 369 kts | 228° |
| 2026-05-08 19:39 | 34.92584 | -116.63275 | 18266 ft | 362 kts | 225° |
| 2026-05-08 19:39 | 34.90750 | -116.65337 | 17675 ft | 356 kts | 224° |
| 2026-05-08 19:39 | 34.88919 | -116.67339 | 17090 ft | 350 kts | 223° |
| 2026-05-08 19:39 | 34.87113 | -116.69292 | 16509 ft | 344 kts | 224° |
| 2026-05-08 19:40 | 34.85326 | -116.71223 | 15939 ft | 340 kts | 222° |
| 2026-05-08 19:40 | 34.83586 | -116.73093 | 15389 ft | 335 kts | 223° |
| 2026-05-08 19:40 | 34.81850 | -116.74962 | 14845 ft | 331 kts | 224° |
| 2026-05-08 19:40 | 34.80131 | -116.76811 | 14309 ft | 328 kts | 224° |
| 2026-05-08 19:41 | 34.78429 | -116.78645 | 13777 ft | 325 kts | 224° |
| 2026-05-08 19:41 | 34.76740 | -116.80461 | 13191 ft | 323 kts | 224° |
| 2026-05-08 19:41 | 34.75065 | -116.82261 | 12608 ft | 320 kts | 223° |
| 2026-05-08 19:41 | 34.73405 | -116.84043 | 12052 ft | 317 kts | 223° |
| 2026-05-08 19:42 | 34.71878 | -116.85874 | 11976 ft | 302 kts | 236° |
| 2026-05-08 19:42 | 34.71111 | -116.88235 | 11992 ft | 308 kts | 257° |
| 2026-05-08 19:42 | 34.70652 | -116.90864 | 11997 ft | 325 kts | 258° |
| 2026-05-08 19:42 | 34.70202 | -116.93562 | 11978 ft | 325 kts | 258° |
| 2026-05-08 19:43 | 34.69733 | -116.96243 | 11766 ft | 321 kts | 258° |
| 2026-05-08 19:43 | 34.69267 | -116.98837 | 11511 ft | 308 kts | 257° |
| 2026-05-08 19:43 | 34.68828 | -117.01309 | 11263 ft | 297 kts | 257° |
| 2026-05-08 19:43 | 34.68402 | -117.03731 | 11006 ft | 289 kts | 257° |
| 2026-05-08 19:44 | 34.67982 | -117.06110 | 10761 ft | 287 kts | 257° |
| 2026-05-08 19:44 | 34.67558 | -117.08492 | 10520 ft | 290 kts | 256° |
| 2026-05-08 19:44 | 34.67130 | -117.10899 | 10289 ft | 293 kts | 256° |
| 2026-05-08 19:44 | 34.66704 | -117.13304 | 10058 ft | 289 kts | 256° |
| 2026-05-08 19:45 | 34.66284 | -117.15673 | 9808 ft | 283 kts | 255° |
| 2026-05-08 19:45 | 34.65868 | -117.17999 | 9549 ft | 280 kts | 256° |
| 2026-05-08 19:45 | 34.65459 | -117.20291 | 9404 ft | 277 kts | 255° |
| 2026-05-08 19:45 | 34.65051 | -117.22571 | 9168 ft | 275 kts | 256° |
| 2026-05-08 19:46 | 34.64646 | -117.24841 | 8932 ft | 274 kts | 256° |
| 2026-05-08 19:46 | 34.64241 | -117.27106 | 8693 ft | 274 kts | 255° |
| 2026-05-08 19:46 | 34.63430 | -117.31623 | 8214 ft | 271 kts | 257° |
| 2026-05-08 19:47 | 34.63034 | -117.33834 | 7973 ft | 271 kts | 256° |
| 2026-05-08 19:47 | 34.62627 | -117.36097 | 7733 ft | 271 kts | 257° |
| 2026-05-08 19:47 | 34.62226 | -117.38326 | 7499 ft | 269 kts | 256° |
| 2026-05-08 19:47 | 34.61833 | -117.40505 | 7262 ft | 266 kts | 256° |
| 2026-05-08 19:48 | 34.61437 | -117.42694 | 7029 ft | 265 kts | 256° |
| 2026-05-08 19:48 | 34.61044 | -117.44873 | 6797 ft | 264 kts | 257° |
| 2026-05-08 19:48 | 34.60651 | -117.47050 | 6571 ft | 263 kts | 256° |
| 2026-05-08 19:48 | 34.60258 | -117.49219 | 6330 ft | 260 kts | 257° |
| 2026-05-08 19:49 | 34.59873 | -117.51344 | 6076 ft | 256 kts | 258° |
| 2026-05-08 19:49 | 34.59497 | -117.53413 | 6083 ft | 243 kts | 258° |
| 2026-05-08 19:49 | 34.59140 | -117.55384 | 6431 ft | 243 kts | 258° |
| 2026-05-08 19:49 | 34.58761 | -117.57472 | 6795 ft | 262 kts | 257° |
| 2026-05-08 19:50 | 34.58365 | -117.59645 | 7159 ft | 262 kts | 257° |
| 2026-05-08 19:50 | 34.57972 | -117.61808 | 7515 ft | 262 kts | 256° |
| 2026-05-08 19:50 | 34.57710 | -117.63245 | 7737 ft | 262 kts | 256° |
| 2026-05-08 19:50 | 34.57315 | -117.65410 | 8078 ft | 267 kts | 257° |
| 2026-05-08 19:51 | 34.56908 | -117.67636 | 8439 ft | 273 kts | 256° |
| 2026-05-08 19:51 | 34.56359 | -117.70639 | 8921 ft | 276 kts | 256° |
| 2026-05-08 19:51 | 34.55939 | -117.72934 | 9061 ft | 284 kts | 255° |
| 2026-05-08 19:51 | 34.55511 | -117.75271 | 9062 ft | 282 kts | 255° |
| 2026-05-08 19:52 | 34.55089 | -117.77572 | 9060 ft | 276 kts | 255° |
| 2026-05-08 19:52 | 34.54814 | -117.79075 | 9059 ft | 274 kts | 256° |
| 2026-05-08 19:52 | 34.54394 | -117.81356 | 9070 ft | 273 kts | 256° |
| 2026-05-08 19:52 | 34.53984 | -117.83579 | 9072 ft | 273 kts | 256° |
| 2026-05-08 19:53 | 34.53570 | -117.85825 | 9077 ft | 273 kts | 256° |
| 2026-05-08 19:53 | 34.53156 | -117.88073 | 9081 ft | 274 kts | 255° |
| 2026-05-08 19:53 | 34.52739 | -117.90329 | 9080 ft | 274 kts | 256° |
| 2026-05-08 19:53 | 34.52323 | -117.92582 | 9087 ft | 275 kts | 256° |
| 2026-05-08 19:54 | 34.51902 | -117.94858 | 9094 ft | 276 kts | 256° |
| 2026-05-08 19:54 | 34.51481 | -117.97131 | 9096 ft | 276 kts | 255° |
| 2026-05-08 19:54 | 34.51058 | -117.99406 | 9098 ft | 276 kts | 256° |
| 2026-05-08 19:54 | 34.50639 | -118.01667 | 8994 ft | 278 kts | 256° |
| 2026-05-08 19:55 | 34.50211 | -118.03971 | 8995 ft | 275 kts | 256° |
| 2026-05-08 19:55 | 34.49798 | -118.06191 | 8989 ft | 273 kts | 256° |
| 2026-05-08 19:55 | 34.49382 | -118.08424 | 8985 ft | 271 kts | 255° |
| 2026-05-08 19:55 | 34.48967 | -118.10647 | 8984 ft | 271 kts | 256° |
| 2026-05-08 19:56 | 34.48549 | -118.12885 | 8949 ft | 273 kts | 256° |
| 2026-05-08 19:56 | 34.48129 | -118.15139 | 8950 ft | 275 kts | 256° |
| 2026-05-08 19:56 | 34.47706 | -118.17398 | 8957 ft | 276 kts | 256° |
| 2026-05-08 19:56 | 34.47281 | -118.19666 | 8967 ft | 276 kts | 255° |
| 2026-05-08 19:57 | 34.46856 | -118.21930 | 8960 ft | 275 kts | 256° |
| 2026-05-08 19:57 | 34.46431 | -118.24199 | 8859 ft | 279 kts | 256° |
| 2026-05-08 19:57 | 34.45993 | -118.26523 | 8519 ft | 284 kts | 256° |
| 2026-05-08 19:57 | 34.45556 | -118.28850 | 8148 ft | 281 kts | 256° |
| 2026-05-08 19:58 | 34.45124 | -118.31145 | 7802 ft | 277 kts | 256° |
| 2026-05-08 19:58 | 34.44700 | -118.33400 | 7444 ft | 272 kts | 257° |
| 2026-05-08 19:58 | 34.44290 | -118.35571 | 7103 ft | 262 kts | 257° |
| 2026-05-08 19:58 | 34.43893 | -118.37670 | 6798 ft | 250 kts | 258° |
| 2026-05-08 19:59 | 34.43511 | -118.39679 | 6510 ft | 240 kts | 259° |
| 2026-05-08 19:59 | 34.43145 | -118.41618 | 6218 ft | 232 kts | 258° |
| 2026-05-08 19:59 | 34.42790 | -118.43493 | 5922 ft | 226 kts | 259° |
| 2026-05-08 19:59 | 34.42444 | -118.45326 | 5644 ft | 221 kts | 259° |
| 2026-05-08 20:00 | 34.42023 | -118.47101 | 5366 ft | 219 kts | 247° |
| 2026-05-08 20:00 | 34.41163 | -118.48648 | 4947 ft | 225 kts | 230° |
| 2026-05-08 20:00 | 34.39974 | -118.49798 | 4574 ft | 218 kts | 211° |
| 2026-05-08 20:00 | 34.38584 | -118.50453 | 4139 ft | 212 kts | 194° |
| 2026-05-08 20:01 | 34.37140 | -118.50579 | 3799 ft | 201 kts | 176° |
| 2026-05-08 20:01 | 34.35833 | -118.50427 | 3770 ft | 179 kts | 176° |
| 2026-05-08 20:01 | 34.34616 | -118.50322 | 3553 ft | 172 kts | 178° |
| 2026-05-08 20:01 | 34.33447 | -118.50231 | 3320 ft | 162 kts | 179° |
| 2026-05-08 20:02 | 34.32370 | -118.50113 | 3074 ft | 151 kts | 177° |
| 2026-05-08 20:02 | 34.31331 | -118.50012 | 2834 ft | 152 kts | 177° |
| 2026-05-08 20:02 | 34.30244 | -118.49912 | 2656 ft | 159 kts | 177° |
| 2026-05-08 20:02 | 34.29120 | -118.49811 | 2492 ft | 164 kts | 176° |
| 2026-05-08 20:03 | 34.27964 | -118.49701 | 2254 ft | 170 kts | 175° |
| 2026-05-08 20:03 | 34.26781 | -118.49589 | 1963 ft | 166 kts | 175° |
| 2026-05-08 20:03 | 34.25648 | -118.49479 | 1663 ft | 161 kts | 175° |
| 2026-05-08 20:03 | 34.24569 | -118.49359 | 1505 ft | 152 kts | 176° |
| 2026-05-08 20:04 | 34.23548 | -118.49294 | 1316 ft | 145 kts | 175° |
| 2026-05-08 20:04 | 34.22571 | -118.49186 | 1113 ft | 136 kts | 176° |
| 2026-05-08 20:04 | 34.21647 | -118.49099 | 838 ft | 133 kts | 176° |
| 2026-05-08 20:04 | 34.20790 | -118.49018 | 783 ft | 114 kts | 175° |
| 2026-05-08 20:05 | 34.20173 | -118.48961 | 756 ft | 46 kts | 176° |
| 2026-05-08 20:05 | 34.19976 | -118.48944 | 751 ft | 22 kts | 175° |
| 2026-05-08 20:05 | 34.19825 | -118.48930 | 750 ft | 22 kts | 175° |
| 2026-05-08 20:05 | 34.19733 | -118.48933 | 750 ft | 5 kts | 201° |
| 2026-05-08 20:06 | 34.19706 | -118.48967 | 747 ft | 0 kts | 265° |
| 2026-05-08 20:06 | 34.19724 | -118.49002 | 746 ft | 16 kts | 329° |
| 2026-05-08 20:06 | 34.19858 | -118.49015 | 752 ft | 22 kts | 356° |
| 2026-05-08 20:06 | 34.20032 | -118.49032 | 753 ft | 26 kts | 354° |
| 2026-05-08 20:07 | 34.20191 | -118.49054 | 758 ft | 21 kts | 348° |
| 2026-05-08 20:07 | 34.20325 | -118.49092 | 763 ft | 19 kts | 354° |
| 2026-05-08 20:07 | 34.20446 | -118.49106 | 770 ft | 16 kts | 354° |
| 2026-05-08 20:07 | 34.20559 | -118.49119 | 774 ft | 17 kts | 354° |
| 2026-05-08 20:08 | 34.20688 | -118.49132 | 778 ft | 20 kts | 357° |
| 2026-05-08 20:08 | 34.20811 | -118.49147 | 784 ft | 11 kts | 327° |
| 2026-05-08 20:08 | 34.20834 | -118.49194 | 785 ft | 7 kts | 273° |
| 2026-05-08 20:08 | 34.20833 | -118.49204 | 785 ft | 0 kts | 265° |